Time;durP1;ratioP1;P1;durP2;ratioP2;P2;SDS_P1;SDS_P2;PMS_P1;PMS_P2;Temp;Humidity;BMP_temperature;BMP_pressure;BME280_temperature;BME280_humidity;BME280_pressure;Samples;Min_cycle;Max_cycle;Signal;HPM_P1;HPM_P2
2021/11/14 00:02:19;;;;;;;7.68;2.35;;;21.20;76.60;;;;;;6271519;22;20052;-66
2021/11/14 00:04:46;;;;;;;5.35;1.50;;;21.20;76.70;;;;;;6271685;22;20010;-66
2021/11/14 00:07:15;;;;;;;6.70;1.25;;;21.10;76.60;;;;;;6272432;22;19999;-67
2021/11/14 00:09:41;;;;;;;5.50;2.05;;;21.10;76.50;;;;;;6270915;22;20003;-66
2021/11/14 00:12:09;;;;;;;4.95;1.23;;;21.10;76.90;;;;;;6272474;22;20007;-66
2021/11/14 00:14:35;;;;;;;7.97;2.08;;;21.10;77.10;;;;;;6271181;22;20091;-66
2021/11/14 00:17:02;;;;;;;12.70;1.80;;;21.10;77.10;;;;;;6272138;22;20003;-66
2021/11/14 00:19:29;;;;;;;7.07;1.95;;;21.10;76.80;;;;;;6271290;22;20419;-66
2021/11/14 00:21:56;;;;;;;9.13;2.03;;;21.10;76.90;;;;;;6271890;22;20003;-66
2021/11/14 00:24:22;;;;;;;7.05;1.80;;;21.10;77.00;;;;;;6272159;22;20039;-67
2021/11/14 00:26:49;;;;;;;2.75;1.40;;;21.10;77.10;;;;;;6270827;22;19992;-67
2021/11/14 00:29:15;;;;;;;5.60;1.42;;;21.10;77.00;;;;;;6272271;22;20007;-66
2021/11/14 00:31:42;;;;;;;4.40;1.48;;;21.00;77.10;;;;;;6271113;22;19999;-67
2021/11/14 00:34:09;;;;;;;5.00;1.92;;;21.10;77.30;;;;;;6272840;22;20002;-66
2021/11/14 00:36:38;;;;;;;6.95;1.73;;;21.00;77.10;;;;;;6271169;22;20000;-67
2021/11/14 00:39:12;;;;;;;10.35;2.00;;;21.00;77.40;;;;;;6271799;22;20004;-66
2021/11/14 00:41:39;;;;;;;5.82;1.77;;;20.90;77.40;;;;;;6272138;22;20743;-66
2021/11/14 00:44:06;;;;;;;11.25;1.90;;;20.90;77.50;;;;;;6269854;22;19996;-67
2021/11/14 00:46:33;;;;;;;4.22;1.45;;;20.90;77.50;;;;;;6271780;22;20082;-66
2021/11/14 00:49:00;;;;;;;11.73;1.95;;;20.90;77.70;;;;;;6271118;22;20046;-67
2021/11/14 00:51:30;;;;;;;4.10;1.75;;;20.90;77.60;;;;;;6271690;22;20074;-66
2021/11/14 00:54:03;;;;;;;10.48;2.05;;;20.90;77.60;;;;;;6270812;22;20082;-66
2021/11/14 00:56:30;;;;;;;10.27;3.95;;;20.90;77.50;;;;;;6271783;22;20007;-66
2021/11/14 00:58:57;;;;;;;8.10;2.35;;;20.80;77.20;;;;;;6271640;22;20020;-65
2021/11/14 01:01:25;;;;;;;6.43;2.13;;;20.80;78.10;;;;;;6270467;22;20057;-66
2021/11/14 01:03:52;;;;;;;9.07;2.00;;;20.80;77.50;;;;;;6271342;22;20102;-66
2021/11/14 01:06:19;;;;;;;6.63;1.83;;;20.80;77.70;;;;;;6270156;22;20003;-66
2021/11/14 01:08:46;;;;;;;11.82;2.38;;;20.80;77.50;;;;;;6271714;22;20346;-66
2021/11/14 01:11:15;;;;;;;8.52;1.92;;;20.80;78.20;;;;;;6270470;22;20320;-66
2021/11/14 01:13:42;;;;;;;5.15;1.70;;;20.80;77.70;;;;;;6271601;22;20004;-66
2021/11/14 01:16:10;;;;;;;5.00;1.55;;;20.80;77.70;;;;;;6271417;22;19996;-65
2021/11/14 01:18:37;;;;;;;10.60;2.42;;;20.80;77.90;;;;;;6270746;22;20086;-66
2021/11/14 01:21:07;;;;;;;7.18;1.88;;;20.80;78.00;;;;;;6272161;22;19999;-66
2021/11/14 01:23:34;;;;;;;6.93;2.30;;;20.80;78.10;;;;;;6270359;22;20057;-67
2021/11/14 01:26:02;;;;;;;8.50;1.83;;;20.70;78.70;;;;;;6271759;22;20386;-66
2021/11/14 01:28:28;;;;;;;10.05;3.08;;;20.70;78.10;;;;;;6270533;22;20008;-66
2021/11/14 01:30:56;;;;;;;8.20;1.83;;;20.70;78.20;;;;;;6271617;22;20007;-66
2021/11/14 01:33:25;;;;;;;7.80;1.83;;;20.70;78.40;;;;;;6270971;22;20024;-66
2021/11/14 01:35:55;;;;;;;6.80;1.88;;;20.70;78.60;;;;;;6270973;22;20398;-66
2021/11/14 01:38:24;;;;;;;9.35;2.35;;;20.70;78.70;;;;;;6271947;22;20000;-65
2021/11/14 01:41:06;;;;;;;9.63;1.95;;;20.70;78.50;;;;;;6270294;22;19999;-65
2021/11/14 01:43:37;;;;;;;8.35;1.65;;;20.70;78.60;;;;;;6271327;22;20898;-65
2021/11/14 01:46:04;;;;;;;11.48;1.88;;;20.60;78.70;;;;;;6270682;22;20003;-65
2021/11/14 01:48:31;;;;;;;6.55;1.80;;;20.60;78.80;;;;;;6270938;22;20038;-65
2021/11/14 01:50:59;;;;;;;5.85;2.88;;;20.60;78.70;;;;;;6271583;22;19999;-65
2021/11/14 01:53:26;;;;;;;11.43;1.95;;;20.60;78.90;;;;;;6269979;22;19992;-66
2021/11/14 01:55:53;;;;;;;5.97;1.58;;;20.60;78.80;;;;;;6271495;22;20000;-66
2021/11/14 01:58:22;;;;;;;8.40;2.13;;;20.60;78.80;;;;;;6270158;22;20338;-67
2021/11/14 02:01:04;;;;;;;8.15;1.92;;;20.60;78.80;;;;;;6271643;22;20000;-67
2021/11/14 02:03:32;;;;;;;8.35;2.80;;;20.60;78.80;;;;;;6270802;22;20004;-66
2021/11/14 02:05:59;;;;;;;11.48;3.67;;;20.60;78.80;;;;;;6270430;22;20039;-66
2021/11/14 02:08:26;;;;;;;7.72;1.95;;;20.60;78.70;;;;;;6271216;22;20065;-65
2021/11/14 02:10:53;;;;;;;10.93;1.90;;;20.60;78.80;;;;;;6269963;22;20003;-65
2021/11/14 02:13:20;;;;;;;10.02;2.47;;;20.60;78.70;;;;;;6271675;22;20006;-65
2021/11/14 02:15:48;;;;;;;6.18;1.50;;;20.50;78.60;;;;;;6269555;22;19996;-65
2021/11/14 02:18:17;;;;;;;8.57;2.03;;;20.50;78.60;;;;;;6271174;22;19996;-66
2021/11/14 02:20:46;;;;;;;7.95;2.10;;;20.50;79.20;;;;;;6270468;22;19999;-66
2021/11/14 02:23:16;;;;;;;7.70;1.80;;;20.50;78.50;;;;;;6270722;22;20004;-66
2021/11/14 02:25:47;;;;;;;6.28;2.17;;;20.50;79.10;;;;;;6271235;22;20003;-66
2021/11/14 02:28:14;;;;;;;4.72;1.42;;;20.50;78.40;;;;;;6270513;22;20004;-66
2021/11/14 02:30:41;;;;;;;5.93;1.98;;;20.50;78.30;;;;;;6271114;22;20003;-66
2021/11/14 02:33:08;;;;;;;5.22;1.70;;;20.50;78.40;;;;;;6269806;22;20056;-66
2021/11/14 02:35:35;;;;;;;5.78;1.77;;;20.50;78.40;;;;;;6271564;22;20000;-66
2021/11/14 02:38:03;;;;;;;9.88;2.17;;;20.40;78.40;;;;;;6271426;22;20079;-66
2021/11/14 02:40:30;;;;;;;4.57;1.60;;;20.40;78.50;;;;;;6270669;22;19995;-66
2021/11/14 02:42:57;;;;;;;7.93;2.42;;;20.40;78.50;;;;;;6271221;22;20004;-66
2021/11/14 02:45:26;;;;;;;8.38;2.05;;;20.40;78.50;;;;;;6270523;22;20019;-67
2021/11/14 02:47:54;;;;;;;5.32;1.67;;;20.40;78.40;;;;;;6271726;22;20385;-68
2021/11/14 02:50:21;;;;;;;6.45;1.50;;;20.40;78.30;;;;;;6269978;22;20312;-66
2021/11/14 02:52:48;;;;;;;8.02;2.72;;;20.30;78.30;;;;;;6270889;22;19999;-66
2021/11/14 02:55:19;;;;;;;8.82;1.83;;;20.30;78.20;;;;;;6270045;22;20149;-67
2021/11/14 02:57:46;;;;;;;6.63;2.30;;;20.30;78.30;;;;;;6270644;22;20047;-66
2021/11/14 03:00:17;;;;;;;5.88;1.58;;;20.30;78.20;;;;;;6270864;22;19996;-66
2021/11/14 03:02:44;;;;;;;5.65;1.55;;;20.30;78.10;;;;;;6269452;22;20014;-66
2021/11/14 03:05:16;;;;;;;5.13;2.10;;;20.30;78.20;;;;;;6271021;22;20435;-66
2021/11/14 03:07:43;;;;;;;6.90;2.00;;;20.30;78.10;;;;;;6269499;22;20012;-66
2021/11/14 03:10:13;;;;;;;8.88;1.70;;;20.30;78.10;;;;;;6270924;22;20087;-66
2021/11/14 03:12:39;;;;;;;9.43;2.85;;;20.20;78.00;;;;;;6270172;22;20003;-67
2021/11/14 03:15:07;;;;;;;6.85;1.52;;;20.30;78.10;;;;;;6270702;22;19999;-65
2021/11/14 03:17:34;;;;;;;14.32;1.65;;;20.30;78.00;;;;;;6271122;22;20089;-66
2021/11/14 03:20:01;;;;;;;6.45;1.95;;;20.30;77.90;;;;;;6269995;22;20015;-66
2021/11/14 03:22:27;;;;;;;7.82;1.63;;;20.20;77.90;;;;;;6270852;22;20004;-66
2021/11/14 03:24:54;;;;;;;12.05;1.88;;;20.30;77.70;;;;;;6269923;22;20470;-65
2021/11/14 03:27:26;;;;;;;10.07;2.25;;;20.20;77.50;;;;;;6271938;22;20011;-65
2021/11/14 03:29:52;;;;;;;5.30;1.52;;;20.30;77.40;;;;;;6272229;22;20003;-65
2021/11/14 03:32:19;;;;;;;11.50;1.60;;;20.20;77.90;;;;;;6272909;22;20310;-67
2021/11/14 03:34:45;;;;;;;14.48;3.25;;;20.20;77.00;;;;;;6272891;22;20004;-69
2021/11/14 03:37:14;;;;;;;5.30;1.35;;;20.20;77.10;;;;;;6272343;22;20003;-65
2021/11/14 03:39:41;;;;;;;3.45;1.63;;;20.20;77.00;;;;;;6272971;22;20087;-66
2021/11/14 03:42:08;;;;;;;8.73;1.70;;;20.20;76.90;;;;;;6272611;22;20011;-65
2021/11/14 03:44:34;;;;;;;4.85;1.08;;;20.20;76.70;;;;;;6273466;22;20004;-65
2021/11/14 03:47:01;;;;;;;7.15;1.73;;;20.30;76.50;;;;;;6271844;22;20082;-65
2021/11/14 03:49:28;;;;;;;6.90;1.10;;;20.20;76.30;;;;;;6272824;22;20360;-69
2021/11/14 03:51:55;;;;;;;4.78;1.50;;;20.20;76.40;;;;;;6272398;22;20000;-67
2021/11/14 03:54:23;;;;;;;9.00;1.20;;;20.20;76.30;;;;;;6271567;22;20019;-66
2021/11/14 03:56:49;;;;;;;7.18;1.98;;;20.20;76.40;;;;;;6272664;22;20082;-66
2021/11/14 03:59:16;;;;;;;9.25;1.63;;;20.20;76.40;;;;;;6271374;22;20019;-66
2021/11/14 04:01:43;;;;;;;5.95;1.90;;;20.20;76.50;;;;;;6272529;22;20003;-66
2021/11/14 04:04:09;;;;;;;3.35;1.60;;;20.20;76.50;;;;;;6271129;22;20003;-65
2021/11/14 04:06:36;;;;;;;5.93;1.90;;;20.20;76.60;;;;;;6272401;22;20077;-65
2021/11/14 04:09:03;;;;;;;12.40;2.15;;;20.20;76.60;;;;;;6271979;22;20330;-65
2021/11/14 04:11:29;;;;;;;6.82;1.60;;;20.20;76.70;;;;;;6272282;22;20049;-66
2021/11/14 04:13:56;;;;;;;9.32;1.45;;;20.20;76.70;;;;;;6272995;22;20003;-65
2021/11/14 04:16:22;;;;;;;5.45;2.65;;;20.20;76.70;;;;;;6271718;22;20415;-66
2021/11/14 04:18:49;;;;;;;9.63;2.63;;;20.10;76.80;;;;;;6272639;22;19992;-67
2021/11/14 04:21:15;;;;;;;3.47;1.52;;;20.20;76.70;;;;;;6270964;22;20010;-66
2021/11/14 04:23:42;;;;;;;10.82;2.85;;;20.20;76.90;;;;;;6272449;22;20000;-67
2021/11/14 04:26:09;;;;;;;7.57;1.92;;;20.20;77.00;;;;;;6271436;22;20007;-66
2021/11/14 04:28:36;;;;;;;6.75;2.38;;;20.20;76.80;;;;;;6271796;22;20008;-66
2021/11/14 04:31:03;;;;;;;14.25;2.83;;;20.20;76.90;;;;;;6272668;22;20046;-65
2021/11/14 04:33:30;;;;;;;11.32;1.88;;;20.20;77.10;;;;;;6271417;22;20027;-66
2021/11/14 04:35:57;;;;;;;8.70;1.90;;;20.20;77.00;;;;;;6272236;22;19999;-66
2021/11/14 04:38:24;;;;;;;14.75;2.35;;;20.20;77.10;;;;;;6270632;22;20324;-66
2021/11/14 04:40:51;;;;;;;8.63;2.20;;;20.30;76.90;;;;;;6272499;22;20504;-66
2021/11/14 04:43:18;;;;;;;9.98;2.00;;;20.30;77.00;;;;;;6271466;22;20000;-66
2021/11/14 04:45:48;;;;;;;9.13;7.05;;;20.20;77.10;;;;;;6272100;22;19999;-66
2021/11/14 04:48:15;;;;;;;10.93;3.80;;;20.30;77.40;;;;;;6271688;22;20015;-65
2021/11/14 04:51:21;;;;;;;7.20;3.53;;;20.30;78.10;;;;;;6270029;22;20041;-72
2021/11/14 04:54:24;;;;;;;28.92;22.17;;;20.30;77.50;;;;;;6243204;22;20305;-68
2021/11/14 04:56:51;;;;;;;31.48;14.32;;;20.30;77.40;;;;;;6243493;22;20004;-67
2021/11/14 04:59:19;;;;;;;7.75;2.95;;;20.40;77.50;;;;;;6269181;22;20016;-69
2021/11/14 05:01:45;;;;;;;18.00;4.22;;;20.40;77.20;;;;;;6270961;22;20027;-66
2021/11/14 05:04:12;;;;;;;7.88;2.20;;;20.40;77.40;;;;;;6269428;22;20031;-71
2021/11/14 05:06:39;;;;;;;7.82;2.78;;;20.40;77.40;;;;;;6270364;22;20000;-68
2021/11/14 05:09:05;;;;;;;6.10;2.00;;;20.40;77.20;;;;;;6269204;22;20015;-66
2021/11/14 05:11:32;;;;;;;6.07;1.67;;;20.40;77.20;;;;;;6270779;22;20099;-67
2021/11/14 05:13:59;;;;;;;7.10;2.13;;;20.50;77.20;;;;;;6269349;22;20011;-68
2021/11/14 05:16:25;;;;;;;23.48;7.97;;;20.50;77.20;;;;;;6268421;22;20000;-69
2021/11/14 05:18:51;;;;;;;16.85;10.57;;;20.60;77.30;;;;;;6268636;22;20526;-72
2021/11/14 05:21:19;;;;;;;11.82;7.53;;;20.50;77.20;;;;;;6265573;22;20046;-67
2021/11/14 05:23:45;;;;;;;7.70;2.20;;;20.60;77.20;;;;;;6268718;22;20054;-68
2021/11/14 05:26:12;;;;;;;9.77;2.35;;;20.60;76.90;;;;;;6267442;22;20015;-68
2021/11/14 05:28:39;;;;;;;11.10;2.38;;;20.60;76.40;;;;;;6268531;22;20073;-68
2021/11/14 05:31:45;;;;;;;11.75;2.15;;;20.70;76.30;;;;;;6267376;22;19996;-66
2021/11/14 05:34:51;;;;;;;28.33;4.00;;;20.80;76.00;;;;;;6267556;22;20007;-69
2021/11/14 05:37:57;;;;;;;24.23;3.05;;;20.80;75.60;;;;;;6268416;22;20007;-69
2021/11/14 05:41:03;;;;;;;11.73;2.28;;;20.80;74.40;;;;;;6269444;22;20000;-68
2021/11/14 05:44:09;;;;;;;9.85;1.80;;;20.90;74.60;;;;;;6267692;22;20046;-69
2021/11/14 05:47:15;;;;;;;4.60;2.10;;;20.90;74.20;;;;;;6266364;22;20003;-69
2021/11/14 05:50:21;;;;;;;51.42;44.88;;;21.00;73.60;;;;;;6266173;22;20039;-69
2021/11/14 05:53:27;;;;;;;35.65;12.55;;;21.00;73.20;;;;;;6265588;22;20008;-71
2021/11/14 05:56:33;;;;;;;13.60;4.72;;;21.00;73.30;;;;;;6265171;22;20055;-68
2021/11/14 06:02:50;;;;;;;15.18;3.45;;;21.20;73.20;;;;;;6266810;22;20004;-68
2021/11/14 06:05:56;;;;;;;9.23;2.40;;;21.30;72.50;;;;;;6266814;22;20006;-69
2021/11/14 06:09:02;;;;;;;8.27;2.85;;;21.30;71.80;;;;;;6265866;22;20390;-69
2021/11/14 06:12:08;;;;;;;10.82;2.10;;;21.40;70.90;;;;;;6265764;22;20027;-72
2021/11/14 06:15:14;;;;;;;5.43;1.65;;;21.50;71.20;;;;;;6260822;22;20038;-69
2021/11/14 06:17:41;;;;;;;4.18;1.17;;;21.50;71.00;;;;;;6264949;22;19999;-67
2021/11/14 06:20:08;;;;;;;20.95;4.95;;;21.60;70.60;;;;;;6265341;22;20403;-66
2021/11/14 06:22:35;;;;;;;9.52;8.27;;;21.60;69.10;;;;;;6264603;22;19999;-68
2021/11/14 06:25:02;;;;;;;11.57;4.45;;;21.70;65.70;;;;;;6263383;22;20015;-68
2021/11/14 06:27:31;;;;;;;2.90;1.40;;;21.70;64.20;;;;;;6265852;22;20015;-66
2021/11/14 06:29:57;;;;;;;3.28;1.30;;;21.70;62.60;;;;;;6268511;22;19996;-68
2021/11/14 06:32:24;;;;;;;3.13;0.75;;;21.80;63.10;;;;;;6268869;22;20004;-70
2021/11/14 06:34:50;;;;;;;3.83;1.70;;;21.80;62.40;;;;;;6266981;22;20004;-68
2021/11/14 06:37:17;;;;;;;5.72;1.83;;;21.80;61.40;;;;;;6267944;22;20023;-70
2021/11/14 06:39:43;;;;;;;5.47;2.35;;;21.80;61.40;;;;;;6266281;22;19999;-68
2021/11/14 06:42:10;;;;;;;5.28;1.60;;;21.90;61.70;;;;;;6267074;22;20178;-68
2021/11/14 06:44:36;;;;;;;4.32;1.67;;;21.90;61.80;;;;;;6264043;22;20066;-69
2021/11/14 06:47:03;;;;;;;6.63;2.08;;;22.00;62.30;;;;;;6267500;22;20126;-67
2021/11/14 06:49:29;;;;;;;4.35;1.35;;;22.10;61.50;;;;;;6266918;22;20069;-70
2021/11/14 06:51:56;;;;;;;3.88;1.27;;;22.20;61.30;;;;;;6265657;22;19996;-67
2021/11/14 06:54:23;;;;;;;9.15;2.90;;;22.30;60.60;;;;;;6266236;22;20443;-68
2021/11/14 06:56:49;;;;;;;5.05;2.30;;;22.30;59.60;;;;;;6269212;22;20039;-68
2021/11/14 06:59:16;;;;;;;3.28;1.52;;;22.40;60.00;;;;;;6271004;22;20022;-65
2021/11/14 07:02:25;;;;;;;3.85;2.03;;;22.50;60.10;;;;;;6269156;22;20300;-67
2021/11/14 07:05:31;;;;;;;4.60;1.38;;;22.60;59.40;;;;;;6270733;22;20006;-67
2021/11/14 07:08:53;;;;;;;14.10;9.85;;;22.70;59.40;;;;;;6270894;22;20540;-68
2021/11/14 07:11:59;;;;;;;6.88;2.45;;;22.80;57.30;;;;;;6269985;22;20338;-68
2021/11/14 07:14:27;;;;;;;4.72;1.73;;;22.90;57.90;;;;;;6269092;22;20000;-63
2021/11/14 07:16:54;;;;;;;3.22;1.90;;;23.00;57.50;;;;;;6271564;22;20022;-65
2021/11/14 07:20:00;;;;;;;6.47;2.22;;;23.00;57.20;;;;;;6240771;22;20366;-64
2021/11/14 07:23:06;;;;;;;5.97;1.90;;;23.10;57.40;;;;;;6269508;22;20000;-65
2021/11/14 07:26:13;;;;;;;6.28;2.13;;;23.20;57.90;;;;;;6270438;22;20011;-65
2021/11/14 07:28:58;;;;;;;;;;;23.40;56.60;;;;;;6271149;22;20439;-66
2021/11/14 07:32:04;;;;;;;3.88;1.70;;;23.50;56.30;;;;;;6269564;22;19903;-65
2021/11/14 07:35:10;;;;;;;3.92;1.80;;;23.50;56.00;;;;;;6242240;22;20011;-65
2021/11/14 07:38:17;;;;;;;3.50;1.20;;;23.70;56.10;;;;;;6269923;22;20392;-64
2021/11/14 07:41:23;;;;;;;6.18;1.63;;;23.70;56.40;;;;;;6266598;22;20064;-67
2021/11/14 07:43:49;;;;;;;;;;;23.80;55.90;;;;;;6266457;22;19996;-66
2021/11/14 07:46:16;;;;;;;10.57;1.38;;;23.90;56.10;;;;;;6267196;22;19903;-65
2021/11/14 07:48:44;;;;;;;8.30;2.25;;;24.00;56.40;;;;;;6265230;22;20015;-65
2021/11/14 07:51:50;;;;;;;5.70;2.08;;;24.10;56.40;;;;;;6267059;22;20004;-66
2021/11/14 07:54:56;;;;;;;6.03;2.03;;;24.10;56.50;;;;;;6265724;22;20014;-66
2021/11/14 07:57:45;;;;;;;;;;;24.20;55.40;;;;;;6267224;22;20000;-63
2021/11/14 08:00:51;;;;;;;5.28;1.58;;;24.30;54.70;;;;;;6269450;22;19922;-68
2021/11/14 08:03:57;;;;;;;7.15;1.88;;;24.40;54.10;;;;;;6267889;22;20015;-67
2021/11/14 08:06:43;;;;;;;;;;;24.50;54.20;;;;;;6268281;22;20525;-68
2021/11/14 08:09:10;;;;;;;5.47;1.67;;;24.60;53.90;;;;;;6270317;22;19911;-70
2021/11/14 08:11:36;;;;;;;12.95;5.68;;;24.60;53.10;;;;;;6267311;22;20062;-68
2021/11/14 08:14:04;;;;;;;12.63;6.13;;;24.70;52.80;;;;;;6268714;22;20196;-68
2021/11/14 08:16:30;;;;;;;6.50;2.33;;;24.70;52.50;;;;;;6269178;22;20011;-73
2021/11/14 08:18:57;;;;;;;2.55;1.23;;;24.80;52.20;;;;;;6269738;22;20000;-71
2021/11/14 08:21:23;;;;;;;6.43;2.58;;;24.80;51.60;;;;;;6270427;22;20010;-71
2021/11/14 08:23:50;;;;;;;3.55;1.30;;;24.90;51.20;;;;;;6269447;22;19999;-71
2021/11/14 08:26:16;;;;;;;6.30;1.30;;;25.00;51.40;;;;;;6270587;22;20446;-71
2021/11/14 08:28:43;;;;;;;6.00;1.70;;;25.10;51.60;;;;;;6268940;22;20007;-71
2021/11/14 08:31:10;;;;;;;6.97;1.80;;;25.10;50.60;;;;;;6270243;22;20439;-71
2021/11/14 08:33:36;;;;;;;4.82;1.55;;;25.20;50.50;;;;;;6268402;22;20000;-71
2021/11/14 08:36:03;;;;;;;7.82;1.50;;;25.30;50.80;;;;;;6269137;22;20426;-67
2021/11/14 08:38:30;;;;;;;3.75;2.08;;;25.40;50.40;;;;;;6269956;22;20004;-67
2021/11/14 08:40:57;;;;;;;6.25;1.80;;;25.40;50.40;;;;;;6267845;22;20003;-68
2021/11/14 08:43:24;;;;;;;4.32;2.42;;;25.50;51.10;;;;;;6269483;22;20050;-67
2021/11/14 08:45:50;;;;;;;6.25;3.45;;;25.60;52.30;;;;;;6269154;22;20336;-72
2021/11/14 08:48:17;;;;;;;6.13;2.05;;;25.60;51.80;;;;;;6270135;22;20014;-67
2021/11/14 08:50:46;;;;;;;7.72;2.00;;;25.70;50.70;;;;;;6268891;22;20004;-70
2021/11/14 08:53:13;;;;;;;7.75;2.33;;;25.80;50.80;;;;;;6269843;22;20454;-68
2021/11/14 08:55:40;;;;;;;4.22;1.60;;;25.90;50.30;;;;;;6270650;22;19996;-69
2021/11/14 08:58:07;;;;;;;10.05;1.58;;;25.90;50.60;;;;;;6268658;22;20031;-70
2021/11/14 09:00:33;;;;;;;5.15;2.13;;;26.00;50.20;;;;;;6270425;22;20322;-72
2021/11/14 09:03:02;;;;;;;6.40;2.55;;;26.00;49.80;;;;;;6269071;22;20324;-72
2021/11/14 09:05:30;;;;;;;5.10;2.08;;;26.10;49.60;;;;;;6270362;22;20008;-68
2021/11/14 09:08:03;;;;;;;4.43;1.98;;;26.10;49.30;;;;;;6267606;22;20016;-74
2021/11/14 09:10:30;;;;;;;9.35;2.13;;;26.20;49.20;;;;;;6269573;22;19996;-72
2021/11/14 09:12:57;;;;;;;2.88;1.73;;;26.20;47.90;;;;;;6269736;22;20014;-74
2021/11/14 09:15:29;;;;;;;6.80;2.22;;;26.20;47.40;;;;;;6270597;22;20426;-74
2021/11/14 09:17:57;;;;;;;3.65;1.40;;;26.30;47.80;;;;;;6271723;22;20003;-72
2021/11/14 09:20:25;;;;;;;5.07;1.35;;;26.30;47.40;;;;;;6272253;22;19996;-78
2021/11/14 09:22:52;;;;;;;4.88;1.50;;;26.40;47.40;;;;;;6272104;22;20007;-68
2021/11/14 09:25:22;;;;;;;7.90;1.38;;;26.50;47.30;;;;;;6270143;22;20458;-71
2021/11/14 09:27:50;;;;;;;8.45;2.38;;;26.60;46.40;;;;;;6271441;22;20018;-73
2021/11/14 09:30:18;;;;;;;3.45;1.20;;;26.70;46.00;;;;;;6271164;22;20000;-75
2021/11/14 09:32:46;;;;;;;6.03;2.10;;;26.80;45.30;;;;;;6242936;22;20053;-69
2021/11/14 09:35:14;;;;;;;5.47;1.30;;;26.90;44.00;;;;;;6271174;22;20117;-71
2021/11/14 09:37:41;;;;;;;11.25;7.55;;;27.00;42.10;;;;;;6270019;22;20331;-71
2021/11/14 09:40:09;;;;;;;4.45;1.80;;;27.10;40.80;;;;;;6271502;22;20056;-77
2021/11/14 09:42:37;;;;;;;7.47;1.88;;;27.20;40.80;;;;;;6270475;22;20025;-69
2021/11/14 09:45:06;;;;;;;5.43;1.00;;;27.30;40.90;;;;;;6271359;22;20027;-72
2021/11/14 09:47:33;;;;;;;3.45;1.35;;;27.40;41.00;;;;;;6269625;22;20008;-74
2021/11/14 09:50:03;;;;;;;6.22;2.40;;;27.40;39.70;;;;;;6270714;22;20008;-70
2021/11/14 09:52:29;;;;;;;4.82;2.38;;;27.60;39.90;;;;;;6271044;22;20022;-69
2021/11/14 09:54:58;;;;;;;6.68;2.45;;;27.70;39.90;;;;;;6269683;22;20858;-68
2021/11/14 09:57:25;;;;;;;5.88;2.65;;;27.70;40.50;;;;;;6272461;22;20045;-70
2021/11/14 09:59:51;;;;;;;6.53;2.30;;;27.80;40.40;;;;;;6272418;22;20262;-68
2021/11/14 10:02:18;;;;;;;4.47;2.22;;;27.90;39.50;;;;;;6273305;22;20063;-72
2021/11/14 10:04:45;;;;;;;4.78;1.80;;;28.00;38.40;;;;;;6272966;22;20023;-75
2021/11/14 10:07:15;;;;;;;4.18;1.50;;;28.00;38.90;;;;;;6271581;22;20437;-69
2021/11/14 10:09:47;;;;;;;5.00;1.40;;;28.10;38.00;;;;;;6273488;22;20550;-71
2021/11/14 10:12:19;;;;;;;4.70;3.00;;;28.20;37.80;;;;;;6272590;22;20004;-69
2021/11/14 10:15:03;;;;;;;6.40;2.10;;;28.30;38.00;;;;;;6273411;22;20074;-69
2021/11/14 10:17:29;;;;;;;5.72;1.75;;;28.40;37.90;;;;;;6272402;22;19996;-69
2021/11/14 10:20:13;;;;;;;7.95;2.90;;;28.50;38.80;;;;;;6273209;22;20000;-70
2021/11/14 10:22:43;;;;;;;3.50;2.33;;;28.60;42.30;;;;;;6273324;22;20003;-70
2021/11/14 10:25:12;;;;;;;6.13;2.33;;;28.70;44.00;;;;;;6270909;22;20053;-69
2021/11/14 10:27:39;;;;;;;7.78;1.90;;;28.60;44.30;;;;;;6272034;22;20023;-69
2021/11/14 10:30:10;;;;;;;12.45;6.63;;;28.60;43.90;;;;;;6272018;22;19996;-68
2021/11/14 10:32:37;;;;;;;7.45;2.70;;;28.50;44.80;;;;;;6273431;22;20053;-68
2021/11/14 10:35:04;;;;;;;5.88;1.83;;;28.50;45.30;;;;;;6272659;22;20004;-68
2021/11/14 10:37:43;;;;;;;4.88;2.22;;;28.60;45.40;;;;;;6271906;22;20446;-68
2021/11/14 10:40:14;;;;;;;5.90;2.35;;;28.60;48.20;;;;;;6273097;22;19999;-69
2021/11/14 10:42:46;;;;;;;3.42;1.67;;;28.60;45.60;;;;;;6271714;22;20000;-67
2021/11/14 10:45:13;;;;;;;6.03;2.05;;;28.60;44.60;;;;;;6273194;22;20660;-68
2021/11/14 10:47:39;;;;;;;10.18;2.13;;;28.70;44.10;;;;;;6271977;22;20083;-69
2021/11/14 10:50:10;;;;;;;5.25;1.90;;;28.70;44.20;;;;;;6272926;22;20049;-70
2021/11/14 10:52:55;;;;;;;8.10;2.03;;;28.80;43.30;;;;;;6273031;22;20079;-70
2021/11/14 10:55:22;;;;;;;3.63;1.47;;;28.80;42.30;;;;;;6272027;22;20493;-70
2021/11/14 10:57:50;;;;;;;35.63;31.00;;;28.70;41.80;;;;;;6273194;22;20086;-69
2021/11/14 11:00:28;;;;;;;10.23;4.80;;;28.70;42.70;;;;;;6266787;22;20000;-68
2021/11/14 11:02:54;;;;;;;4.05;1.50;;;28.70;42.30;;;;;;6240225;22;20004;-68
2021/11/14 11:05:24;;;;;;;6.50;2.05;;;28.70;42.00;;;;;;6269515;22;20011;-70
2021/11/14 11:07:59;;;;;;;4.18;1.67;;;28.60;41.90;;;;;;6271624;22;20099;-66
2021/11/14 11:10:29;;;;;;;;;;;28.60;42.50;;;;;;6272711;22;20010;-69
2021/11/14 11:12:56;;;;;;;6.55;1.30;;;28.70;42.70;;;;;;6270394;22;19903;-67
2021/11/14 11:15:23;;;;;;;6.22;1.30;;;28.70;42.50;;;;;;6271844;22;20067;-69
2021/11/14 11:17:51;;;;;;;7.68;1.80;;;28.80;42.00;;;;;;6271111;22;20045;-69
2021/11/14 11:20:24;;;;;;;5.78;2.13;;;28.90;42.20;;;;;;6272980;22;20000;-69
2021/11/14 11:22:57;;;;;;;6.18;1.70;;;28.90;41.60;;;;;;6272942;22;20485;-69
2021/11/14 11:25:38;;;;;;;4.25;2.20;;;29.00;41.80;;;;;;6271700;22;19992;-70
2021/11/14 11:28:08;;;;;;;8.35;4.13;;;29.10;41.40;;;;;;6272874;22;20039;-69
2021/11/14 11:30:39;;;;;;;27.98;25.05;;;29.20;41.40;;;;;;6271510;22;20003;-71
2021/11/14 11:33:06;;;;;;;26.70;19.27;;;29.20;41.70;;;;;;6272899;22;20004;-68
2021/11/14 11:35:33;;;;;;;53.97;14.43;;;29.20;41.70;;;;;;6272428;22;20003;-67
2021/11/14 11:38:00;;;;;;;16.95;9.13;;;29.10;42.00;;;;;;6272197;22;20008;-67
2021/11/14 11:40:27;;;;;;;13.95;6.90;;;29.10;41.90;;;;;;6272789;22;20003;-68
2021/11/14 11:42:54;;;;;;;8.73;7.30;;;29.00;42.40;;;;;;6271622;22;20319;-68
2021/11/14 11:45:28;;;;;;;11.98;7.28;;;29.00;42.20;;;;;;6272759;22;20688;-67
2021/11/14 11:47:57;;;;;;;8.87;4.50;;;29.00;41.90;;;;;;6244982;22;20312;-67
2021/11/14 11:50:26;;;;;;;5.50;4.07;;;29.00;41.50;;;;;;6274655;22;20083;-67
2021/11/14 11:52:54;;;;;;;4.57;2.78;;;29.00;41.40;;;;;;6274077;22;20089;-66
2021/11/14 11:55:39;;;;;;;6.30;3.15;;;29.00;41.30;;;;;;6273994;22;20004;-67
2021/11/14 11:58:15;;;;;;;4.13;2.78;;;29.10;40.80;;;;;;6274490;22;20016;-67
2021/11/14 12:01:18;;;;;;;5.68;2.30;;;29.10;40.10;;;;;;6273201;22;20127;-68
2021/11/14 12:03:45;;;;;;;5.60;2.65;;;29.10;39.50;;;;;;6227544;22;20004;-68
2021/11/14 12:06:24;;;;;;;3.60;2.00;;;29.10;39.40;;;;;;6274349;22;20000;-68
2021/11/14 12:08:57;;;;;;;6.47;2.22;;;29.10;39.20;;;;;;6273506;22;20004;-70
2021/11/14 12:11:40;;;;;;;8.98;2.40;;;29.20;39.10;;;;;;6274444;22;19999;-70
2021/11/14 12:14:33;;;;;;;6.85;3.00;;;29.20;38.60;;;;;;6273160;22;20529;-69
2021/11/14 12:17:07;;;;;;;5.65;1.67;;;29.30;38.40;;;;;;6268048;22;20023;-68
2021/11/14 12:19:37;;;;;;;4.22;1.80;;;29.30;37.90;;;;;;6274506;22;20012;-69
2021/11/14 12:22:19;;;;;;;3.47;1.13;;;29.30;37.60;;;;;;6273145;22;19999;-70
2021/11/14 12:24:56;;;;;;;6.20;1.52;;;29.40;37.40;;;;;;6274483;22;20052;-67
2021/11/14 12:27:35;;;;;;;7.63;2.08;;;29.40;37.30;;;;;;6273375;22;20038;-67
2021/11/14 12:30:08;;;;;;;1.95;1.00;;;29.40;37.30;;;;;;6273478;22;20004;-67
2021/11/14 12:32:47;;;;;;;2.90;1.55;;;29.40;37.50;;;;;;6274484;22;20080;-68
2021/11/14 12:35:24;;;;;;;8.40;2.28;;;29.50;37.00;;;;;;6273327;22;20003;-66
2021/11/14 12:38:01;;;;;;;17.52;15.88;;;29.50;37.10;;;;;;6274408;22;19996;-67
2021/11/14 12:40:32;;;;;;;7.45;6.40;;;29.50;37.40;;;;;;6272998;22;20000;-67
2021/11/14 12:43:34;;;;;;;5.18;4.65;;;29.50;37.70;;;;;;6273785;22;20006;-69
2021/11/14 12:46:08;;;;;;;7.13;3.55;;;29.60;38.10;;;;;;6267028;22;20010;-68
2021/11/14 12:48:37;;;;;;;10.43;3.95;;;29.70;39.60;;;;;;6272608;22;20018;-66
2021/11/14 12:51:10;;;;;;;11.93;3.60;;;29.80;40.60;;;;;;6246898;22;20007;-70
2021/11/14 12:53:59;;;;;;;6.65;2.97;;;29.80;41.40;;;;;;6274185;22;20502;-69
2021/11/14 12:56:32;;;;;;;13.43;3.28;;;29.80;41.80;;;;;;6272620;22;20335;-68
2021/11/14 12:59:00;;;;;;;11.55;4.43;;;29.80;42.30;;;;;;6273681;22;20012;-67
2021/11/14 13:01:32;;;;;;;5.82;2.65;;;29.80;42.40;;;;;;6272645;22;20031;-66
2021/11/14 13:03:59;;;;;;;8.65;2.72;;;29.90;42.90;;;;;;6274151;22;20006;-67
2021/11/14 13:06:37;;;;;;;5.68;2.65;;;29.90;43.40;;;;;;6273948;22;20398;-68
2021/11/14 13:09:22;;;;;;;7.57;2.42;;;29.90;43.80;;;;;;6272911;22;20007;-69
2021/11/14 13:12:09;;;;;;;9.27;3.10;;;29.90;43.80;;;;;;6273667;22;20003;-67
2021/11/14 13:14:39;;;;;;;9.18;3.40;;;29.90;43.50;;;;;;6272646;22;20579;-68
2021/11/14 13:17:08;;;;;;;6.25;2.45;;;29.90;43.80;;;;;;6273947;22;19999;-68
2021/11/14 13:19:37;;;;;;;7.60;2.92;;;29.90;44.10;;;;;;6273649;22;19996;-68